sensor_id;sensor_type;location;lat;lon;timestamp;temperature;humidity
8008;DHT22;4049;49.468;11.200;2023-04-24T00:02:17;10.80;99.90
8008;DHT22;4049;49.468;11.200;2023-04-24T00:04:44;10.70;99.90
8008;DHT22;4049;49.468;11.200;2023-04-24T00:07:11;10.70;99.90
8008;DHT22;4049;49.468;11.200;2023-04-24T00:09:38;10.70;99.90
8008;DHT22;4049;49.468;11.200;2023-04-24T00:12:05;10.70;99.90
8008;DHT22;4049;49.468;11.200;2023-04-24T00:14:32;10.60;99.90
8008;DHT22;4049;49.468;11.200;2023-04-24T00:17:00;10.60;99.90
8008;DHT22;4049;49.468;11.200;2023-04-24T00:19:29;10.60;99.90
8008;DHT22;4049;49.468;11.200;2023-04-24T00:21:56;10.70;99.90
8008;DHT22;4049;49.468;11.200;2023-04-24T00:24:23;10.60;99.90
8008;DHT22;4049;49.468;11.200;2023-04-24T00:26:49;10.60;99.90
8008;DHT22;4049;49.468;11.200;2023-04-24T00:29:16;10.60;99.90
8008;DHT22;4049;49.468;11.200;2023-04-24T00:31:46;10.60;99.90
8008;DHT22;4049;49.468;11.200;2023-04-24T00:34:13;10.60;99.90
8008;DHT22;4049;49.468;11.200;2023-04-24T00:36:41;10.50;99.90
8008;DHT22;4049;49.468;11.200;2023-04-24T00:39:08;10.60;99.90
8008;DHT22;4049;49.468;11.200;2023-04-24T00:41:35;10.60;99.90
8008;DHT22;4049;49.468;11.200;2023-04-24T00:44:02;10.60;99.90
8008;DHT22;4049;49.468;11.200;2023-04-24T00:46:29;10.60;99.90
8008;DHT22;4049;49.468;11.200;2023-04-24T00:48:56;10.60;99.90
8008;DHT22;4049;49.468;11.200;2023-04-24T00:51:25;10.60;99.90
8008;DHT22;4049;49.468;11.200;2023-04-24T00:53:54;10.60;99.90
8008;DHT22;4049;49.468;11.200;2023-04-24T00:56:21;10.50;99.90
8008;DHT22;4049;49.468;11.200;2023-04-24T00:58:49;10.50;99.90
8008;DHT22;4049;49.468;11.200;2023-04-24T01:01:16;10.50;99.90
8008;DHT22;4049;49.468;11.200;2023-04-24T01:03:43;10.50;99.90
8008;DHT22;4049;49.468;11.200;2023-04-24T01:06:10;10.50;99.90
8008;DHT22;4049;49.468;11.200;2023-04-24T01:08:38;10.50;99.90
8008;DHT22;4049;49.468;11.200;2023-04-24T01:11:07;10.50;99.90
8008;DHT22;4049;49.468;11.200;2023-04-24T01:13:34;10.50;99.90
8008;DHT22;4049;49.468;11.200;2023-04-24T01:16:01;10.50;99.90
8008;DHT22;4049;49.468;11.200;2023-04-24T01:18:28;10.50;99.90
8008;DHT22;4049;49.468;11.200;2023-04-24T01:20:58;10.40;99.90
8008;DHT22;4049;49.468;11.200;2023-04-24T01:23:26;10.40;99.90
8008;DHT22;4049;49.468;11.200;2023-04-24T01:25:53;10.40;99.90
8008;DHT22;4049;49.468;11.200;2023-04-24T01:28:20;10.40;99.90
8008;DHT22;4049;49.468;11.200;2023-04-24T01:30:47;10.30;99.90
8008;DHT22;4049;49.468;11.200;2023-04-24T01:33:14;10.40;99.90
8008;DHT22;4049;49.468;11.200;2023-04-24T01:35:41;10.30;99.90
8008;DHT22;4049;49.468;11.200;2023-04-24T01:38:08;10.30;99.90
8008;DHT22;4049;49.468;11.200;2023-04-24T01:40:36;10.30;99.90
8008;DHT22;4049;49.468;11.200;2023-04-24T01:43:03;10.30;99.90
8008;DHT22;4049;49.468;11.200;2023-04-24T01:45:30;10.30;99.90
8008;DHT22;4049;49.468;11.200;2023-04-24T01:47:57;10.30;99.90
8008;DHT22;4049;49.468;11.200;2023-04-24T01:50:24;10.30;99.90
8008;DHT22;4049;49.468;11.200;2023-04-24T01:52:51;10.30;99.90
8008;DHT22;4049;49.468;11.200;2023-04-24T01:55:18;10.30;99.90
8008;DHT22;4049;49.468;11.200;2023-04-24T01:57:46;10.30;99.90
8008;DHT22;4049;49.468;11.200;2023-04-24T02:00:13;10.30;99.90
8008;DHT22;4049;49.468;11.200;2023-04-24T02:02:40;10.30;99.90
8008;DHT22;4049;49.468;11.200;2023-04-24T02:05:08;10.30;99.90
8008;DHT22;4049;49.468;11.200;2023-04-24T02:07:35;10.30;99.90
8008;DHT22;4049;49.468;11.200;2023-04-24T02:10:02;10.30;99.90
8008;DHT22;4049;49.468;11.200;2023-04-24T02:12:29;10.30;99.90
8008;DHT22;4049;49.468;11.200;2023-04-24T02:14:57;10.30;99.90
8008;DHT22;4049;49.468;11.200;2023-04-24T02:17:24;10.30;99.90
8008;DHT22;4049;49.468;11.200;2023-04-24T02:19:52;10.20;99.90
8008;DHT22;4049;49.468;11.200;2023-04-24T02:22:18;10.20;99.90
8008;DHT22;4049;49.468;11.200;2023-04-24T02:24:45;10.20;99.90
8008;DHT22;4049;49.468;11.200;2023-04-24T02:27:12;10.20;99.90
8008;DHT22;4049;49.468;11.200;2023-04-24T02:29:39;10.20;99.90
8008;DHT22;4049;49.468;11.200;2023-04-24T02:32:07;10.20;99.90
8008;DHT22;4049;49.468;11.200;2023-04-24T02:34:36;10.10;99.90
8008;DHT22;4049;49.468;11.200;2023-04-24T02:37:03;10.10;99.90
8008;DHT22;4049;49.468;11.200;2023-04-24T02:39:30;10.10;99.90
8008;DHT22;4049;49.468;11.200;2023-04-24T02:41:57;10.10;99.90
8008;DHT22;4049;49.468;11.200;2023-04-24T02:44:24;10.00;99.90
8008;DHT22;4049;49.468;11.200;2023-04-24T02:46:51;10.10;99.90
8008;DHT22;4049;49.468;11.200;2023-04-24T02:49:19;10.10;99.90
8008;DHT22;4049;49.468;11.200;2023-04-24T02:51:46;10.00;99.90
8008;DHT22;4049;49.468;11.200;2023-04-24T02:54:13;10.00;99.90
8008;DHT22;4049;49.468;11.200;2023-04-24T02:56:39;10.00;99.90
8008;DHT22;4049;49.468;11.200;2023-04-24T02:59:06;10.00;99.90
8008;DHT22;4049;49.468;11.200;2023-04-24T03:01:33;10.00;99.90
8008;DHT22;4049;49.468;11.200;2023-04-24T03:04:01;10.00;99.90
8008;DHT22;4049;49.468;11.200;2023-04-24T03:06:29;10.00;99.90
8008;DHT22;4049;49.468;11.200;2023-04-24T03:08:56;10.10;99.90
8008;DHT22;4049;49.468;11.200;2023-04-24T03:11:23;10.00;99.90
8008;DHT22;4049;49.468;11.200;2023-04-24T03:13:50;10.00;99.90
8008;DHT22;4049;49.468;11.200;2023-04-24T03:16:17;10.00;99.90
8008;DHT22;4049;49.468;11.200;2023-04-24T03:18:44;10.00;99.90
8008;DHT22;4049;49.468;11.200;2023-04-24T03:21:11;10.00;99.90
8008;DHT22;4049;49.468;11.200;2023-04-24T03:23:40;9.90;99.90
8008;DHT22;4049;49.468;11.200;2023-04-24T03:26:06;10.00;99.90
8008;DHT22;4049;49.468;11.200;2023-04-24T03:28:33;9.90;99.90
8008;DHT22;4049;49.468;11.200;2023-04-24T03:31:00;9.90;99.90
8008;DHT22;4049;49.468;11.200;2023-04-24T03:33:27;9.90;99.90
8008;DHT22;4049;49.468;11.200;2023-04-24T03:35:53;9.90;99.90
8008;DHT22;4049;49.468;11.200;2023-04-24T03:38:20;9.90;99.90
8008;DHT22;4049;49.468;11.200;2023-04-24T03:40:48;9.90;99.90
8008;DHT22;4049;49.468;11.200;2023-04-24T03:43:15;9.90;99.90
8008;DHT22;4049;49.468;11.200;2023-04-24T03:45:42;9.90;99.90
8008;DHT22;4049;49.468;11.200;2023-04-24T03:48:09;9.80;99.90
8008;DHT22;4049;49.468;11.200;2023-04-24T03:50:36;9.90;99.90
8008;DHT22;4049;49.468;11.200;2023-04-24T03:53:03;9.90;99.90
8008;DHT22;4049;49.468;11.200;2023-04-24T03:55:30;9.80;99.90
8008;DHT22;4049;49.468;11.200;2023-04-24T03:57:58;9.80;99.90
8008;DHT22;4049;49.468;11.200;2023-04-24T04:00:25;9.80;99.90
8008;DHT22;4049;49.468;11.200;2023-04-24T04:02:52;9.80;99.90
8008;DHT22;4049;49.468;11.200;2023-04-24T04:05:19;9.80;99.90
8008;DHT22;4049;49.468;11.200;2023-04-24T04:07:45;9.80;99.90
8008;DHT22;4049;49.468;11.200;2023-04-24T04:10:12;9.80;99.90
8008;DHT22;4049;49.468;11.200;2023-04-24T04:12:39;9.80;99.90
8008;DHT22;4049;49.468;11.200;2023-04-24T04:15:08;9.80;99.90
8008;DHT22;4049;49.468;11.200;2023-04-24T04:17:35;9.80;99.90
8008;DHT22;4049;49.468;11.200;2023-04-24T04:20:03;9.80;99.90
8008;DHT22;4049;49.468;11.200;2023-04-24T04:22:34;9.80;99.90
8008;DHT22;4049;49.468;11.200;2023-04-24T04:25:01;9.80;99.90
8008;DHT22;4049;49.468;11.200;2023-04-24T04:27:28;9.80;99.90
8008;DHT22;4049;49.468;11.200;2023-04-24T04:29:57;9.80;99.90
8008;DHT22;4049;49.468;11.200;2023-04-24T04:32:26;9.80;99.90
8008;DHT22;4049;49.468;11.200;2023-04-24T04:34:53;9.80;99.90
8008;DHT22;4049;49.468;11.200;2023-04-24T04:37:20;9.80;99.90
8008;DHT22;4049;49.468;11.200;2023-04-24T04:39:47;9.70;99.90
8008;DHT22;4049;49.468;11.200;2023-04-24T04:42:14;9.70;99.90
8008;DHT22;4049;49.468;11.200;2023-04-24T04:44:41;9.70;99.90
8008;DHT22;4049;49.468;11.200;2023-04-24T04:47:08;9.80;99.90
8008;DHT22;4049;49.468;11.200;2023-04-24T04:49:37;9.80;99.90
8008;DHT22;4049;49.468;11.200;2023-04-24T04:52:05;9.80;99.90
8008;DHT22;4049;49.468;11.200;2023-04-24T04:54:32;9.80;99.90
8008;DHT22;4049;49.468;11.200;2023-04-24T04:56:58;9.80;99.90
8008;DHT22;4049;49.468;11.200;2023-04-24T04:59:26;9.80;99.90
8008;DHT22;4049;49.468;11.200;2023-04-24T05:01:52;9.80;99.90
8008;DHT22;4049;49.468;11.200;2023-04-24T05:04:19;9.80;99.90
8008;DHT22;4049;49.468;11.200;2023-04-24T05:06:47;9.80;99.90
8008;DHT22;4049;49.468;11.200;2023-04-24T05:09:16;9.80;99.90
8008;DHT22;4049;49.468;11.200;2023-04-24T05:11:44;9.90;99.90
8008;DHT22;4049;49.468;11.200;2023-04-24T05:14:11;9.90;99.90
8008;DHT22;4049;49.468;11.200;2023-04-24T05:16:39;9.90;99.90
8008;DHT22;4049;49.468;11.200;2023-04-24T05:19:06;9.90;99.90
8008;DHT22;4049;49.468;11.200;2023-04-24T05:21:33;9.90;99.90
8008;DHT22;4049;49.468;11.200;2023-04-24T05:24:01;9.90;99.90
8008;DHT22;4049;49.468;11.200;2023-04-24T05:26:28;9.90;99.90
8008;DHT22;4049;49.468;11.200;2023-04-24T05:28:55;10.00;99.90
8008;DHT22;4049;49.468;11.200;2023-04-24T05:31:22;10.00;99.90
8008;DHT22;4049;49.468;11.200;2023-04-24T05:33:49;10.10;99.90
8008;DHT22;4049;49.468;11.200;2023-04-24T05:36:15;10.10;99.90
8008;DHT22;4049;49.468;11.200;2023-04-24T05:38:42;10.10;99.90
8008;DHT22;4049;49.468;11.200;2023-04-24T05:41:10;10.10;99.90
8008;DHT22;4049;49.468;11.200;2023-04-24T05:43:37;10.20;99.90
8008;DHT22;4049;49.468;11.200;2023-04-24T05:46:04;10.20;99.90
8008;DHT22;4049;49.468;11.200;2023-04-24T05:48:31;10.20;99.90
8008;DHT22;4049;49.468;11.200;2023-04-24T05:50:58;10.30;99.90
8008;DHT22;4049;49.468;11.200;2023-04-24T05:53:25;10.30;99.90
8008;DHT22;4049;49.468;11.200;2023-04-24T05:55:52;10.30;99.90
8008;DHT22;4049;49.468;11.200;2023-04-24T05:58:20;10.30;99.90
8008;DHT22;4049;49.468;11.200;2023-04-24T06:00:47;10.40;99.90
8008;DHT22;4049;49.468;11.200;2023-04-24T06:03:15;10.40;99.90
8008;DHT22;4049;49.468;11.200;2023-04-24T06:05:42;10.40;99.90
8008;DHT22;4049;49.468;11.200;2023-04-24T06:08:09;10.40;99.90
8008;DHT22;4049;49.468;11.200;2023-04-24T06:10:36;10.40;99.90
8008;DHT22;4049;49.468;11.200;2023-04-24T06:13:03;10.40;99.90
8008;DHT22;4049;49.468;11.200;2023-04-24T06:15:31;10.40;99.90
8008;DHT22;4049;49.468;11.200;2023-04-24T06:17:58;10.40;99.90
8008;DHT22;4049;49.468;11.200;2023-04-24T06:20:26;10.40;99.90
8008;DHT22;4049;49.468;11.200;2023-04-24T06:22:53;10.40;99.90
8008;DHT22;4049;49.468;11.200;2023-04-24T06:25:20;10.50;99.90
8008;DHT22;4049;49.468;11.200;2023-04-24T06:27:47;10.40;99.90
8008;DHT22;4049;49.468;11.200;2023-04-24T06:30:14;10.50;99.90
8008;DHT22;4049;49.468;11.200;2023-04-24T06:32:42;10.50;99.90
8008;DHT22;4049;49.468;11.200;2023-04-24T06:35:09;10.60;99.90
8008;DHT22;4049;49.468;11.200;2023-04-24T06:37:38;10.60;99.90
8008;DHT22;4049;49.468;11.200;2023-04-24T06:40:06;10.60;99.90
8008;DHT22;4049;49.468;11.200;2023-04-24T06:42:33;10.60;99.90
8008;DHT22;4049;49.468;11.200;2023-04-24T06:45:01;10.70;99.90
8008;DHT22;4049;49.468;11.200;2023-04-24T06:47:30;10.70;99.90
8008;DHT22;4049;49.468;11.200;2023-04-24T06:49:58;10.70;99.90
8008;DHT22;4049;49.468;11.200;2023-04-24T06:52:25;10.80;99.90
8008;DHT22;4049;49.468;11.200;2023-04-24T06:54:52;10.70;99.90
8008;DHT22;4049;49.468;11.200;2023-04-24T06:57:19;10.70;99.90
8008;DHT22;4049;49.468;11.200;2023-04-24T06:59:46;10.70;99.90
8008;DHT22;4049;49.468;11.200;2023-04-24T07:02:13;10.70;99.90
8008;DHT22;4049;49.468;11.200;2023-04-24T07:04:40;10.70;99.90
8008;DHT22;4049;49.468;11.200;2023-04-24T07:07:08;10.70;99.90
8008;DHT22;4049;49.468;11.200;2023-04-24T07:09:38;10.80;99.90
8008;DHT22;4049;49.468;11.200;2023-04-24T07:12:07;10.80;99.90
8008;DHT22;4049;49.468;11.200;2023-04-24T07:14:35;10.90;99.90
8008;DHT22;4049;49.468;11.200;2023-04-24T07:17:03;10.90;99.90
8008;DHT22;4049;49.468;11.200;2023-04-24T07:19:30;10.90;99.90
8008;DHT22;4049;49.468;11.200;2023-04-24T07:21:57;11.00;99.90
8008;DHT22;4049;49.468;11.200;2023-04-24T07:24:26;10.90;99.90
8008;DHT22;4049;49.468;11.200;2023-04-24T07:26:54;11.00;99.90
8008;DHT22;4049;49.468;11.200;2023-04-24T07:29:22;11.00;99.90
8008;DHT22;4049;49.468;11.200;2023-04-24T07:31:54;11.00;99.90
8008;DHT22;4049;49.468;11.200;2023-04-24T07:34:21;11.00;99.90
8008;DHT22;4049;49.468;11.200;2023-04-24T07:36:48;11.00;99.90
8008;DHT22;4049;49.468;11.200;2023-04-24T07:39:15;11.10;99.90
8008;DHT22;4049;49.468;11.200;2023-04-24T07:41:43;11.10;99.90
8008;DHT22;4049;49.468;11.200;2023-04-24T07:44:10;11.10;99.90
8008;DHT22;4049;49.468;11.200;2023-04-24T07:46:37;11.10;99.90
8008;DHT22;4049;49.468;11.200;2023-04-24T07:49:04;11.00;99.90
8008;DHT22;4049;49.468;11.200;2023-04-24T07:51:31;11.00;99.90
8008;DHT22;4049;49.468;11.200;2023-04-24T07:54:03;11.00;99.90
8008;DHT22;4049;49.468;11.200;2023-04-24T07:56:31;11.00;99.90
8008;DHT22;4049;49.468;11.200;2023-04-24T07:58:59;11.00;99.90
8008;DHT22;4049;49.468;11.200;2023-04-24T08:01:27;11.00;99.90
8008;DHT22;4049;49.468;11.200;2023-04-24T08:03:54;10.90;99.90
8008;DHT22;4049;49.468;11.200;2023-04-24T08:06:21;10.90;99.90
8008;DHT22;4049;49.468;11.200;2023-04-24T08:08:48;10.90;99.90
8008;DHT22;4049;49.468;11.200;2023-04-24T08:11:15;10.90;99.90
8008;DHT22;4049;49.468;11.200;2023-04-24T08:13:41;10.90;99.90
8008;DHT22;4049;49.468;11.200;2023-04-24T08:16:10;10.90;99.90
8008;DHT22;4049;49.468;11.200;2023-04-24T08:18:37;10.90;99.90
8008;DHT22;4049;49.468;11.200;2023-04-24T08:21:04;11.00;99.90
8008;DHT22;4049;49.468;11.200;2023-04-24T08:23:31;11.00;99.90
8008;DHT22;4049;49.468;11.200;2023-04-24T08:25:57;11.10;99.90
8008;DHT22;4049;49.468;11.200;2023-04-24T08:28:24;11.20;99.90
8008;DHT22;4049;49.468;11.200;2023-04-24T08:30:51;11.20;99.90
8008;DHT22;4049;49.468;11.200;2023-04-24T08:33:21;11.30;99.90
8008;DHT22;4049;49.468;11.200;2023-04-24T08:35:48;11.40;99.90
8008;DHT22;4049;49.468;11.200;2023-04-24T08:38:15;11.50;99.90
8008;DHT22;4049;49.468;11.200;2023-04-24T08:40:42;11.50;99.90
8008;DHT22;4049;49.468;11.200;2023-04-24T08:43:12;11.60;99.90
8008;DHT22;4049;49.468;11.200;2023-04-24T08:45:39;11.50;99.90
8008;DHT22;4049;49.468;11.200;2023-04-24T08:48:07;11.50;99.90
8008;DHT22;4049;49.468;11.200;2023-04-24T08:50:37;11.50;99.90
8008;DHT22;4049;49.468;11.200;2023-04-24T08:53:07;11.40;99.90
8008;DHT22;4049;49.468;11.200;2023-04-24T08:55:35;11.50;99.90
8008;DHT22;4049;49.468;11.200;2023-04-24T08:58:02;11.60;99.90
8008;DHT22;4049;49.468;11.200;2023-04-24T09:00:29;11.70;99.90
8008;DHT22;4049;49.468;11.200;2023-04-24T09:02:56;11.70;99.90
8008;DHT22;4049;49.468;11.200;2023-04-24T09:05:24;11.70;99.90
8008;DHT22;4049;49.468;11.200;2023-04-24T09:07:54;11.80;99.90
8008;DHT22;4049;49.468;11.200;2023-04-24T09:10:23;11.90;99.90
8008;DHT22;4049;49.468;11.200;2023-04-24T09:12:51;11.90;99.90
8008;DHT22;4049;49.468;11.200;2023-04-24T09:15:18;12.00;99.90
8008;DHT22;4049;49.468;11.200;2023-04-24T09:17:46;12.10;99.90
8008;DHT22;4049;49.468;11.200;2023-04-24T09:20:13;12.20;99.90
8008;DHT22;4049;49.468;11.200;2023-04-24T09:22:40;12.20;99.90
8008;DHT22;4049;49.468;11.200;2023-04-24T09:25:09;12.20;99.90
8008;DHT22;4049;49.468;11.200;2023-04-24T09:27:41;12.20;99.90
8008;DHT22;4049;49.468;11.200;2023-04-24T09:30:09;12.20;99.90
8008;DHT22;4049;49.468;11.200;2023-04-24T09:32:36;12.30;99.90
8008;DHT22;4049;49.468;11.200;2023-04-24T09:35:08;12.30;99.90
8008;DHT22;4049;49.468;11.200;2023-04-24T09:37:36;12.40;99.90
8008;DHT22;4049;49.468;11.200;2023-04-24T09:40:15;12.40;99.90
8008;DHT22;4049;49.468;11.200;2023-04-24T09:42:50;12.60;99.90
8008;DHT22;4049;49.468;11.200;2023-04-24T09:45:18;12.60;99.90
8008;DHT22;4049;49.468;11.200;2023-04-24T09:47:44;12.50;99.90
8008;DHT22;4049;49.468;11.200;2023-04-24T09:50:13;12.40;99.90
8008;DHT22;4049;49.468;11.200;2023-04-24T09:52:41;12.40;99.90
8008;DHT22;4049;49.468;11.200;2023-04-24T09:55:20;12.40;99.90
8008;DHT22;4049;49.468;11.200;2023-04-24T09:57:49;12.50;99.90
8008;DHT22;4049;49.468;11.200;2023-04-24T10:00:21;12.70;99.90
8008;DHT22;4049;49.468;11.200;2023-04-24T10:02:55;12.80;99.90
8008;DHT22;4049;49.468;11.200;2023-04-24T10:05:27;12.80;99.90
8008;DHT22;4049;49.468;11.200;2023-04-24T10:08:01;12.80;99.90
8008;DHT22;4049;49.468;11.200;2023-04-24T10:10:30;12.80;99.90
8008;DHT22;4049;49.468;11.200;2023-04-24T10:12:57;12.70;99.90
8008;DHT22;4049;49.468;11.200;2023-04-24T10:15:26;12.70;99.90
8008;DHT22;4049;49.468;11.200;2023-04-24T10:17:53;12.70;99.90
8008;DHT22;4049;49.468;11.200;2023-04-24T10:20:21;12.70;99.90
8008;DHT22;4049;49.468;11.200;2023-04-24T10:22:48;12.60;99.90
8008;DHT22;4049;49.468;11.200;2023-04-24T10:25:18;12.60;99.90
8008;DHT22;4049;49.468;11.200;2023-04-24T10:27:47;12.70;99.90
8008;DHT22;4049;49.468;11.200;2023-04-24T10:30:15;12.70;99.90
8008;DHT22;4049;49.468;11.200;2023-04-24T10:32:42;12.80;99.90
8008;DHT22;4049;49.468;11.200;2023-04-24T10:35:10;12.90;99.90
8008;DHT22;4049;49.468;11.200;2023-04-24T10:37:40;13.10;99.90
8008;DHT22;4049;49.468;11.200;2023-04-24T10:40:09;13.30;99.90
8008;DHT22;4049;49.468;11.200;2023-04-24T10:42:40;13.50;99.90
8008;DHT22;4049;49.468;11.200;2023-04-24T10:45:16;13.70;99.90
8008;DHT22;4049;49.468;11.200;2023-04-24T10:47:52;14.00;99.90
8008;DHT22;4049;49.468;11.200;2023-04-24T10:50:19;14.20;99.90
8008;DHT22;4049;49.468;11.200;2023-04-24T10:52:46;14.30;97.80
8008;DHT22;4049;49.468;11.200;2023-04-24T10:55:13;14.30;99.90
8008;DHT22;4049;49.468;11.200;2023-04-24T10:58:03;14.10;99.90
8008;DHT22;4049;49.468;11.200;2023-04-24T11:00:31;13.90;99.90
8008;DHT22;4049;49.468;11.200;2023-04-24T11:02:58;13.70;99.90
8008;DHT22;4049;49.468;11.200;2023-04-24T11:05:50;13.50;99.90
8008;DHT22;4049;49.468;11.200;2023-04-24T11:08:23;13.40;99.90
8008;DHT22;4049;49.468;11.200;2023-04-24T11:10:56;13.20;99.90
8008;DHT22;4049;49.468;11.200;2023-04-24T11:13:24;13.00;99.90
8008;DHT22;4049;49.468;11.200;2023-04-24T11:16:15;12.80;99.90
8008;DHT22;4049;49.468;11.200;2023-04-24T11:18:51;12.70;99.90
8008;DHT22;4049;49.468;11.200;2023-04-24T11:21:20;12.60;99.90
8008;DHT22;4049;49.468;11.200;2023-04-24T11:23:47;12.70;99.90
8008;DHT22;4049;49.468;11.200;2023-04-24T11:26:18;12.60;99.90
8008;DHT22;4049;49.468;11.200;2023-04-24T11:28:49;12.70;99.90
8008;DHT22;4049;49.468;11.200;2023-04-24T11:31:38;12.80;99.90
8008;DHT22;4049;49.468;11.200;2023-04-24T11:34:10;12.90;99.90
8008;DHT22;4049;49.468;11.200;2023-04-24T11:36:38;12.90;99.90
8008;DHT22;4049;49.468;11.200;2023-04-24T11:39:06;12.90;99.90
8008;DHT22;4049;49.468;11.200;2023-04-24T11:41:33;13.00;99.90
8008;DHT22;4049;49.468;11.200;2023-04-24T11:44:01;12.90;99.90
8008;DHT22;4049;49.468;11.200;2023-04-24T11:46:30;13.00;99.90
8008;DHT22;4049;49.468;11.200;2023-04-24T11:48:59;13.10;99.90
8008;DHT22;4049;49.468;11.200;2023-04-24T11:51:27;13.20;99.90
8008;DHT22;4049;49.468;11.200;2023-04-24T11:53:54;13.30;99.90
8008;DHT22;4049;49.468;11.200;2023-04-24T11:56:22;13.30;99.90
8008;DHT22;4049;49.468;11.200;2023-04-24T11:58:50;13.30;99.90
8008;DHT22;4049;49.468;11.200;2023-04-24T12:01:18;13.20;99.90
8008;DHT22;4049;49.468;11.200;2023-04-24T12:03:48;13.10;99.90
8008;DHT22;4049;49.468;11.200;2023-04-24T12:06:17;13.00;99.90
8008;DHT22;4049;49.468;11.200;2023-04-24T12:08:48;12.80;99.90
8008;DHT22;4049;49.468;11.200;2023-04-24T12:11:16;12.70;99.90
8008;DHT22;4049;49.468;11.200;2023-04-24T12:13:44;12.70;99.90
8008;DHT22;4049;49.468;11.200;2023-04-24T12:16:12;12.60;99.90
8008;DHT22;4049;49.468;11.200;2023-04-24T12:18:43;12.60;99.90
8008;DHT22;4049;49.468;11.200;2023-04-24T12:21:19;12.60;99.90
8008;DHT22;4049;49.468;11.200;2023-04-24T12:23:47;12.70;99.90
8008;DHT22;4049;49.468;11.200;2023-04-24T12:26:17;12.70;99.90
8008;DHT22;4049;49.468;11.200;2023-04-24T12:28:47;12.70;99.90
8008;DHT22;4049;49.468;11.200;2023-04-24T12:31:14;12.80;99.90
8008;DHT22;4049;49.468;11.200;2023-04-24T12:33:41;12.90;99.90
8008;DHT22;4049;49.468;11.200;2023-04-24T12:36:10;13.00;99.90
8008;DHT22;4049;49.468;11.200;2023-04-24T12:38:39;13.00;99.90
8008;DHT22;4049;49.468;11.200;2023-04-24T12:41:11;13.10;99.90
8008;DHT22;4049;49.468;11.200;2023-04-24T12:43:38;13.10;99.90
8008;DHT22;4049;49.468;11.200;2023-04-24T12:46:05;13.10;99.90
8008;DHT22;4049;49.468;11.200;2023-04-24T12:48:32;13.00;99.90
8008;DHT22;4049;49.468;11.200;2023-04-24T12:50:59;13.10;99.90
8008;DHT22;4049;49.468;11.200;2023-04-24T12:53:27;13.10;99.90
8008;DHT22;4049;49.468;11.200;2023-04-24T12:55:56;13.20;99.90
8008;DHT22;4049;49.468;11.200;2023-04-24T12:58:24;13.20;99.90
8008;DHT22;4049;49.468;11.200;2023-04-24T13:00:51;13.20;99.90
8008;DHT22;4049;49.468;11.200;2023-04-24T13:03:18;12.90;99.90
8008;DHT22;4049;49.468;11.200;2023-04-24T13:05:46;12.80;99.90
8008;DHT22;4049;49.468;11.200;2023-04-24T13:08:15;12.80;99.90
8008;DHT22;4049;49.468;11.200;2023-04-24T13:10:41;12.90;99.90
8008;DHT22;4049;49.468;11.200;2023-04-24T13:13:10;13.00;99.90
8008;DHT22;4049;49.468;11.200;2023-04-24T13:15:36;13.00;99.90
8008;DHT22;4049;49.468;11.200;2023-04-24T13:18:03;13.10;99.90
8008;DHT22;4049;49.468;11.200;2023-04-24T13:20:30;13.20;99.90
8008;DHT22;4049;49.468;11.200;2023-04-24T13:22:57;13.30;99.90
8008;DHT22;4049;49.468;11.200;2023-04-24T13:25:24;13.40;99.90
8008;DHT22;4049;49.468;11.200;2023-04-24T13:27:52;13.50;99.90
8008;DHT22;4049;49.468;11.200;2023-04-24T13:30:20;13.50;99.90
8008;DHT22;4049;49.468;11.200;2023-04-24T13:32:47;13.40;99.90
8008;DHT22;4049;49.468;11.200;2023-04-24T13:35:14;13.30;99.90
8008;DHT22;4049;49.468;11.200;2023-04-24T13:37:40;13.20;99.90
8008;DHT22;4049;49.468;11.200;2023-04-24T13:40:08;13.00;99.90
8008;DHT22;4049;49.468;11.200;2023-04-24T13:42:35;12.80;99.90
8008;DHT22;4049;49.468;11.200;2023-04-24T13:45:03;12.70;99.90
8008;DHT22;4049;49.468;11.200;2023-04-24T13:47:32;12.60;99.90
8008;DHT22;4049;49.468;11.200;2023-04-24T13:49:58;12.60;99.90
8008;DHT22;4049;49.468;11.200;2023-04-24T13:52:25;12.50;99.90
8008;DHT22;4049;49.468;11.200;2023-04-24T13:54:52;12.50;99.90
8008;DHT22;4049;49.468;11.200;2023-04-24T13:57:19;12.50;99.90
8008;DHT22;4049;49.468;11.200;2023-04-24T13:59:46;12.50;99.90
8008;DHT22;4049;49.468;11.200;2023-04-24T14:02:13;12.40;99.90
8008;DHT22;4049;49.468;11.200;2023-04-24T14:04:41;12.30;99.90
8008;DHT22;4049;49.468;11.200;2023-04-24T14:07:08;12.30;99.90
8008;DHT22;4049;49.468;11.200;2023-04-24T14:09:35;12.20;99.90
8008;DHT22;4049;49.468;11.200;2023-04-24T14:12:02;12.20;99.90
8008;DHT22;4049;49.468;11.200;2023-04-24T14:14:29;12.20;99.90
8008;DHT22;4049;49.468;11.200;2023-04-24T14:16:56;12.20;99.90
8008;DHT22;4049;49.468;11.200;2023-04-24T14:19:23;12.20;99.90
8008;DHT22;4049;49.468;11.200;2023-04-24T14:21:52;12.30;99.90
8008;DHT22;4049;49.468;11.200;2023-04-24T14:24:19;12.50;99.90
8008;DHT22;4049;49.468;11.200;2023-04-24T14:26:46;12.60;99.90
8008;DHT22;4049;49.468;11.200;2023-04-24T14:29:13;12.70;99.90
8008;DHT22;4049;49.468;11.200;2023-04-24T14:31:40;12.70;99.90
8008;DHT22;4049;49.468;11.200;2023-04-24T14:34:07;12.70;99.90
8008;DHT22;4049;49.468;11.200;2023-04-24T14:36:33;12.80;99.90
8008;DHT22;4049;49.468;11.200;2023-04-24T14:39:02;13.00;99.90
8008;DHT22;4049;49.468;11.200;2023-04-24T14:41:31;13.10;99.90
8008;DHT22;4049;49.468;11.200;2023-04-24T14:44:01;13.10;99.90
8008;DHT22;4049;49.468;11.200;2023-04-24T14:46:28;13.00;99.90
8008;DHT22;4049;49.468;11.200;2023-04-24T14:48:55;13.00;99.90
8008;DHT22;4049;49.468;11.200;2023-04-24T14:51:22;12.90;99.90
8008;DHT22;4049;49.468;11.200;2023-04-24T14:53:49;12.80;99.90
8008;DHT22;4049;49.468;11.200;2023-04-24T14:56:17;12.70;99.90
8008;DHT22;4049;49.468;11.200;2023-04-24T14:58:44;12.70;99.90
8008;DHT22;4049;49.468;11.200;2023-04-24T15:01:11;12.80;99.90
8008;DHT22;4049;49.468;11.200;2023-04-24T15:03:38;13.00;99.90
8008;DHT22;4049;49.468;11.200;2023-04-24T15:06:05;13.10;99.90
8008;DHT22;4049;49.468;11.200;2023-04-24T15:08:32;13.40;99.90
8008;DHT22;4049;49.468;11.200;2023-04-24T15:10:59;13.50;99.90
8008;DHT22;4049;49.468;11.200;2023-04-24T15:13:27;13.50;99.90
8008;DHT22;4049;49.468;11.200;2023-04-24T15:15:54;13.50;99.90
8008;DHT22;4049;49.468;11.200;2023-04-24T15:18:21;13.40;99.90
8008;DHT22;4049;49.468;11.200;2023-04-24T15:20:48;13.40;99.90
8008;DHT22;4049;49.468;11.200;2023-04-24T15:23:15;13.20;99.90
8008;DHT22;4049;49.468;11.200;2023-04-24T15:25:42;13.10;99.90
8008;DHT22;4049;49.468;11.200;2023-04-24T15:28:09;13.00;99.90
8008;DHT22;4049;49.468;11.200;2023-04-24T15:30:37;13.10;99.90
8008;DHT22;4049;49.468;11.200;2023-04-24T15:33:04;13.20;99.90
8008;DHT22;4049;49.468;11.200;2023-04-24T15:35:31;13.20;99.90
8008;DHT22;4049;49.468;11.200;2023-04-24T15:37:58;13.00;99.90
8008;DHT22;4049;49.468;11.200;2023-04-24T15:40:25;13.00;99.90
8008;DHT22;4049;49.468;11.200;2023-04-24T15:42:52;13.10;99.90
8008;DHT22;4049;49.468;11.200;2023-04-24T15:45:19;13.20;99.90
8008;DHT22;4049;49.468;11.200;2023-04-24T15:47:47;13.10;99.90
8008;DHT22;4049;49.468;11.200;2023-04-24T15:50:14;13.20;99.90
8008;DHT22;4049;49.468;11.200;2023-04-24T15:52:42;13.20;99.90